createdAt,value
2018-09-17T00:00:26.421Z,15.60
2018-09-17T00:02:55.033Z,15.50
2018-09-17T00:05:24.189Z,15.50
2018-09-17T00:07:52.770Z,15.40
2018-09-17T00:10:21.395Z,15.40
2018-09-17T00:12:49.967Z,15.40
2018-09-17T00:15:18.702Z,15.30
2018-09-17T00:17:47.350Z,15.30
2018-09-17T00:20:16.018Z,15.40
2018-09-17T00:22:44.660Z,15.40
2018-09-17T00:25:13.686Z,15.40
2018-09-17T00:27:42.342Z,15.30
2018-09-17T00:30:11.035Z,15.30
2018-09-17T00:32:39.614Z,15.30
2018-09-17T00:35:08.266Z,15.20
2018-09-17T00:37:36.852Z,15.20
2018-09-17T00:40:05.475Z,15.10
2018-09-17T00:42:34.073Z,15.00
2018-09-17T00:45:02.679Z,14.70
2018-09-17T00:47:31.316Z,14.50
2018-09-17T00:49:59.915Z,14.50
2018-09-17T00:52:28.610Z,14.40
2018-09-17T00:54:57.194Z,14.30
2018-09-17T00:57:25.793Z,14.20
2018-09-17T00:59:54.362Z,14.10
2018-09-17T01:02:22.970Z,14.10
2018-09-17T01:04:51.546Z,14.20
2018-09-17T01:07:20.156Z,14.20
2018-09-17T01:09:48.741Z,14.20
2018-09-17T01:12:17.430Z,14.20
2018-09-17T01:14:46.050Z,14.20
2018-09-17T01:17:14.720Z,14.00
2018-09-17T01:19:43.401Z,14.00
2018-09-17T01:22:12.066Z,13.90
2018-09-17T01:24:40.702Z,13.80
2018-09-17T01:27:09.363Z,13.70
2018-09-17T01:29:37.987Z,13.60
2018-09-17T01:32:06.620Z,13.60
2018-09-17T01:34:35.227Z,13.60
2018-09-17T01:37:03.868Z,13.60
2018-09-17T01:39:32.539Z,13.50
2018-09-17T01:42:01.146Z,13.40
2018-09-17T01:44:29.866Z,13.50
2018-09-17T01:46:58.455Z,13.60
2018-09-17T01:49:27.046Z,13.60
2018-09-17T01:51:55.617Z,13.60
2018-09-17T01:54:24.222Z,13.60
2018-09-17T01:56:52.818Z,13.60
2018-09-17T01:59:21.458Z,13.60
2018-09-17T02:01:50.037Z,13.60
2018-09-17T02:04:18.739Z,13.50
2018-09-17T02:06:47.459Z,13.50
2018-09-17T02:09:16.091Z,13.50
2018-09-17T02:11:44.817Z,13.50
2018-09-17T02:14:13.474Z,13.40
2018-09-17T02:16:42.191Z,13.50
2018-09-17T02:19:10.884Z,13.30
2018-09-17T02:21:39.558Z,13.30
2018-09-17T02:24:08.142Z,13.20
2018-09-17T02:26:36.750Z,13.10
2018-09-17T02:29:05.858Z,13.10
2018-09-17T02:31:34.482Z,13.10
2018-09-17T02:34:03.098Z,13.20
2018-09-17T02:36:31.781Z,13.20
2018-09-17T02:39:00.417Z,13.10
2018-09-17T02:41:29.023Z,13.10
2018-09-17T02:43:57.601Z,13.10
2018-09-17T02:46:26.193Z,13.10
2018-09-17T02:48:54.760Z,13.00
2018-09-17T02:51:23.350Z,13.10
2018-09-17T02:53:51.918Z,13.10
2018-09-17T02:56:20.502Z,13.10
2018-09-17T02:58:49.218Z,13.20
2018-09-17T03:01:17.815Z,13.10
2018-09-17T03:03:46.473Z,13.20
2018-09-17T03:06:15.143Z,13.30
2018-09-17T03:08:43.843Z,13.20
2018-09-17T03:11:12.506Z,13.30
2018-09-17T03:13:41.762Z,13.30
2018-09-17T03:16:10.371Z,13.40
2018-09-17T03:18:48.717Z,13.50
2018-09-17T03:21:17.392Z,13.50
2018-09-17T03:23:46.043Z,13.50
2018-09-17T03:26:14.731Z,13.40
2018-09-17T03:28:43.387Z,13.40
2018-09-17T03:31:11.997Z,13.40
2018-09-17T03:33:40.568Z,13.40
2018-09-17T03:36:09.187Z,13.40
2018-09-17T03:38:48.793Z,13.40
2018-09-17T03:41:18.710Z,13.40
2018-09-17T03:43:48.697Z,13.30
2018-09-17T03:46:17.422Z,13.30
2018-09-17T03:48:45.954Z,13.30
2018-09-17T03:51:14.932Z,13.20
2018-09-17T03:53:43.705Z,13.10
2018-09-17T03:56:12.294Z,13.10
2018-09-17T03:58:40.948Z,12.80
2018-09-17T04:01:09.567Z,12.70
2018-09-17T04:03:39.230Z,12.70
2018-09-17T04:06:07.930Z,12.60
2018-09-17T04:08:36.590Z,12.60
2018-09-17T04:11:05.256Z,12.60
2018-09-17T04:13:34.314Z,12.70
2018-09-17T04:16:03.005Z,12.70
2018-09-17T04:18:31.649Z,12.70
2018-09-17T04:21:00.221Z,12.80
2018-09-17T04:23:32.778Z,12.80
2018-09-17T04:26:01.760Z,12.80
2018-09-17T04:28:30.407Z,12.80
2018-09-17T04:30:59.079Z,12.80
2018-09-17T04:33:29.086Z,12.80
2018-09-17T04:35:57.695Z,12.80
2018-09-17T04:38:26.274Z,12.80
2018-09-17T04:40:54.954Z,12.80
2018-09-17T04:43:24.007Z,12.80
2018-09-17T04:45:52.848Z,12.80
2018-09-17T04:48:21.534Z,12.80
2018-09-17T04:50:50.250Z,12.80
2018-09-17T04:53:18.827Z,12.80
2018-09-17T04:55:47.429Z,12.80
2018-09-17T04:58:16.043Z,12.80
2018-09-17T05:00:44.770Z,12.80
2018-09-17T05:03:13.390Z,12.80
2018-09-17T05:05:42.026Z,12.80
2018-09-17T05:08:10.737Z,12.80
2018-09-17T05:10:39.385Z,12.90
2018-09-17T05:13:08.142Z,12.90
2018-09-17T05:15:36.750Z,12.80
2018-09-17T05:18:05.622Z,12.90
2018-09-17T05:20:34.356Z,12.90
2018-09-17T05:23:03.013Z,12.90
2018-09-17T05:25:31.638Z,12.90
2018-09-17T05:28:00.274Z,12.80
2018-09-17T05:30:28.858Z,12.90
2018-09-17T05:32:57.458Z,12.80
2018-09-17T05:35:26.094Z,12.80
2018-09-17T05:37:54.710Z,12.80
2018-09-17T05:40:23.346Z,12.80
2018-09-17T05:42:51.927Z,12.80
2018-09-17T05:45:20.522Z,12.80
2018-09-17T05:47:49.109Z,12.80
2018-09-17T05:50:17.726Z,12.80
2018-09-17T05:52:46.306Z,12.80
2018-09-17T05:55:14.901Z,12.80
2018-09-17T05:57:43.473Z,12.80
2018-09-17T06:00:12.118Z,12.80
2018-09-17T06:02:40.698Z,12.80
2018-09-17T06:05:09.339Z,12.90
2018-09-17T06:07:38.012Z,12.90
2018-09-17T06:10:12.009Z,12.90
2018-09-17T06:12:40.674Z,12.90
2018-09-17T06:15:09.317Z,13.00
2018-09-17T06:17:37.980Z,13.10
2018-09-17T06:20:06.735Z,13.10
2018-09-17T06:22:35.449Z,13.20
2018-09-17T06:25:04.394Z,13.20
2018-09-17T06:27:33.086Z,13.30
2018-09-17T06:30:01.677Z,13.40
2018-09-17T06:32:30.281Z,13.40
2018-09-17T06:34:58.886Z,13.60
2018-09-17T06:37:27.515Z,13.70
2018-09-17T06:39:56.104Z,13.80
2018-09-17T06:42:24.760Z,13.90
2018-09-17T06:44:53.399Z,14.00
2018-09-17T06:47:22.012Z,14.10
2018-09-17T06:49:50.620Z,14.20
2018-09-17T06:52:19.217Z,14.40
2018-09-17T06:54:47.813Z,14.50
2018-09-17T06:57:16.411Z,14.60
2018-09-17T06:59:45.070Z,14.70
2018-09-17T07:02:13.718Z,14.90
2018-09-17T07:04:42.424Z,15.10
2018-09-17T07:07:11.007Z,15.20
2018-09-17T07:09:39.629Z,15.40
2018-09-17T07:12:08.242Z,15.40
2018-09-17T07:14:37.022Z,15.50
2018-09-17T07:17:05.723Z,15.70
2018-09-17T07:19:34.389Z,15.80
2018-09-17T07:22:03.034Z,15.90
2018-09-17T07:24:31.629Z,16.00
2018-09-17T07:27:00.245Z,16.10
2018-09-17T07:29:28.842Z,16.20
2018-09-17T07:31:57.438Z,16.20
2018-09-17T07:34:26.045Z,16.30
2018-09-17T07:36:54.681Z,16.50
2018-09-17T07:39:23.308Z,16.60
2018-09-17T07:41:51.979Z,16.70
2018-09-17T07:44:20.574Z,16.80
2018-09-17T07:46:49.162Z,16.90
2018-09-17T07:49:17.728Z,17.00
2018-09-17T07:51:46.357Z,17.10
2018-09-17T07:54:14.968Z,17.20
2018-09-17T07:56:43.573Z,17.30
2018-09-17T07:59:12.189Z,17.40
2018-09-17T08:01:40.817Z,17.50
2018-09-17T08:04:09.477Z,17.70
2018-09-17T08:06:38.117Z,17.80
2018-09-17T08:09:10.306Z,17.90
2018-09-17T08:11:39.242Z,18.10
2018-09-17T08:14:07.921Z,18.20
2018-09-17T08:16:36.590Z,18.30
2018-09-17T08:19:06.123Z,18.40
2018-09-17T08:21:34.789Z,18.60
2018-09-17T08:24:03.474Z,18.70
2018-09-17T08:26:32.142Z,18.70
2018-09-17T08:29:00.731Z,18.80
2018-09-17T08:31:29.347Z,18.80
2018-09-17T08:33:57.974Z,19.00
2018-09-17T08:36:26.637Z,19.10
2018-09-17T08:38:55.221Z,19.30
2018-09-17T08:41:23.873Z,19.40
2018-09-17T08:43:52.541Z,19.60
2018-09-17T08:46:21.156Z,19.90
2018-09-17T08:48:49.774Z,20.20
2018-09-17T08:51:18.458Z,20.40
2018-09-17T08:53:47.070Z,20.40
2018-09-17T08:56:20.993Z,20.70
2018-09-17T08:58:54.970Z,20.70
2018-09-17T09:01:30.298Z,20.70
2018-09-17T09:04:04.305Z,20.80
2018-09-17T09:06:38.259Z,20.80
2018-09-17T09:09:08.822Z,20.80
2018-09-17T09:11:42.795Z,20.90
2018-09-17T09:14:16.717Z,20.80
2018-09-17T09:16:46.453Z,20.90
2018-09-17T09:19:15.182Z,21.00
2018-09-17T09:21:43.785Z,21.10
2018-09-17T09:24:12.693Z,21.10
2018-09-17T09:26:41.347Z,21.30
2018-09-17T09:29:10.264Z,21.40
2018-09-17T09:31:39.030Z,21.60
2018-09-17T09:34:07.779Z,21.70
2018-09-17T09:36:36.635Z,21.70
2018-09-17T09:39:08.306Z,21.80
2018-09-17T09:41:37.054Z,21.80
2018-09-17T09:44:06.175Z,21.90
2018-09-17T09:46:34.981Z,22.10
2018-09-17T09:49:03.756Z,22.40
2018-09-17T09:51:32.482Z,22.50
2018-09-17T09:54:02.131Z,22.40
2018-09-17T09:56:30.746Z,22.60
2018-09-17T09:59:07.737Z,22.80
2018-09-17T10:01:41.708Z,23.20
2018-09-17T10:04:22.416Z,23.30
2018-09-17T10:06:52.098Z,23.60
2018-09-17T10:09:26.118Z,23.60
2018-09-17T10:12:00.041Z,23.60
2018-09-17T10:14:34.080Z,24.00
2018-09-17T10:17:08.046Z,24.20
2018-09-17T10:19:41.038Z,24.00
2018-09-17T10:22:09.765Z,24.00
2018-09-17T10:24:38.425Z,24.30
2018-09-17T10:27:07.158Z,24.30
2018-09-17T10:29:35.907Z,24.60
2018-09-17T10:32:04.708Z,24.60
2018-09-17T10:34:33.598Z,24.60
2018-09-17T10:37:02.274Z,24.80
2018-09-17T10:39:30.908Z,24.80
2018-09-17T10:41:59.522Z,24.90
2018-09-17T10:44:28.105Z,25.10
2018-09-17T10:46:56.790Z,25.30
2018-09-17T10:49:25.445Z,25.40
2018-09-17T10:51:54.882Z,25.80
2018-09-17T10:54:23.478Z,25.90
2018-09-17T10:56:52.077Z,26.00
2018-09-17T10:59:21.374Z,26.20
2018-09-17T11:01:49.957Z,26.60
2018-09-17T11:04:18.566Z,26.70
2018-09-17T11:06:47.189Z,26.80
2018-09-17T11:09:16.078Z,26.50
2018-09-17T11:11:45.008Z,26.70
2018-09-17T11:14:14.173Z,26.70
2018-09-17T11:16:45.413Z,26.70
2018-09-17T11:19:14.347Z,27.00
2018-09-17T11:21:43.140Z,27.20
2018-09-17T11:24:11.987Z,27.20
2018-09-17T11:26:42.248Z,27.30
2018-09-17T11:29:11.848Z,27.50
2018-09-17T11:31:43.393Z,27.60
2018-09-17T11:34:15.279Z,27.80
2018-09-17T11:36:44.717Z,27.80
2018-09-17T11:39:13.604Z,27.90
2018-09-17T11:41:42.373Z,27.80
2018-09-17T11:44:11.085Z,27.80
2018-09-17T11:46:41.778Z,28.10
2018-09-17T11:49:10.592Z,28.50
2018-09-17T11:51:39.328Z,29.00
2018-09-17T11:54:08.285Z,29.10
2018-09-17T11:56:36.996Z,29.30
2018-09-17T11:59:05.695Z,29.30
2018-09-17T12:01:39.616Z,29.40
2018-09-17T12:04:11.145Z,29.90
2018-09-17T12:06:45.065Z,30.10
2018-09-17T12:09:13.741Z,30.10
2018-09-17T12:11:42.746Z,30.30
2018-09-17T12:14:11.461Z,30.50
2018-09-17T12:16:40.176Z,31.00
2018-09-17T12:19:08.919Z,31.10
2018-09-17T12:21:37.735Z,30.50
2018-09-17T12:24:06.592Z,30.40
2018-09-17T12:26:35.231Z,30.20
2018-09-17T12:29:03.878Z,30.50
2018-09-17T12:31:32.458Z,30.80
2018-09-17T12:34:01.175Z,30.90
2018-09-17T12:36:30.216Z,31.20
2018-09-17T12:38:58.340Z,31.10
2018-09-17T12:41:27.027Z,31.20
2018-09-17T12:43:55.696Z,31.20
2018-09-17T12:46:24.307Z,31.30
2018-09-17T12:48:53.001Z,31.50
2018-09-17T12:51:21.602Z,31.60
2018-09-17T12:53:50.354Z,31.40
2018-09-17T12:56:18.978Z,31.60
2018-09-17T12:58:47.966Z,31.60
2018-09-17T13:01:16.734Z,31.60
2018-09-17T13:03:45.462Z,31.50
2018-09-17T13:06:14.164Z,31.80
2018-09-17T13:08:42.960Z,31.90
2018-09-17T13:11:11.757Z,32.20
2018-09-17T13:13:40.590Z,32.00
2018-09-17T13:16:09.524Z,32.00
2018-09-17T13:18:41.056Z,32.40
2018-09-17T13:21:10.074Z,31.90
2018-09-17T13:23:38.846Z,31.80
2018-09-17T13:26:07.799Z,31.40
2018-09-17T13:28:36.602Z,31.40
2018-09-17T13:31:05.442Z,31.50
2018-09-17T13:33:34.164Z,31.30
2018-09-17T13:36:03.015Z,31.50
2018-09-17T13:38:32.068Z,31.50
2018-09-17T13:41:00.758Z,31.30
2018-09-17T13:43:29.379Z,31.60
2018-09-17T13:45:58.114Z,31.60
2018-09-17T13:48:28.717Z,32.00
2018-09-17T13:50:58.330Z,31.50
2018-09-17T13:53:26.952Z,31.30
2018-09-17T13:55:55.530Z,31.20
2018-09-17T13:58:24.141Z,31.30
2018-09-17T14:00:56.642Z,31.40
2018-09-17T14:03:25.330Z,31.30
2018-09-17T14:05:53.934Z,31.20
2018-09-17T14:08:22.513Z,31.20
2018-09-17T14:10:51.184Z,30.90
2018-09-17T14:13:19.777Z,30.60
2018-09-17T14:15:53.782Z,30.40
2018-09-17T14:18:22.416Z,30.40
2018-09-17T14:20:51.010Z,30.60
2018-09-17T14:23:19.634Z,30.60
2018-09-17T14:25:48.245Z,30.40
2018-09-17T14:28:16.993Z,30.30
2018-09-17T14:30:45.622Z,30.40
2018-09-17T14:33:19.537Z,30.10
2018-09-17T14:35:48.175Z,30.20
2018-09-17T14:38:16.892Z,30.20
2018-09-17T14:40:45.474Z,30.20
2018-09-17T14:43:14.301Z,30.10
2018-09-17T14:45:43.014Z,29.90
2018-09-17T14:48:11.887Z,30.10
2018-09-17T14:50:42.528Z,30.00
2018-09-17T14:53:11.409Z,29.90
2018-09-17T14:55:41.827Z,29.70
2018-09-17T14:58:11.275Z,29.60
2018-09-17T15:00:40.048Z,29.50
2018-09-17T15:03:09.153Z,29.40
2018-09-17T15:05:40.602Z,29.60
2018-09-17T15:08:09.998Z,29.40
2018-09-17T15:10:38.708Z,29.20
2018-09-17T15:13:07.554Z,29.30
2018-09-17T15:15:41.386Z,29.00
2018-09-17T15:18:10.277Z,28.80
2018-09-17T15:20:39.296Z,28.80
2018-09-17T15:23:08.317Z,28.80
2018-09-17T15:25:37.126Z,28.80
2018-09-17T15:28:06.068Z,28.60
2018-09-17T15:30:35.866Z,28.40
2018-09-17T15:33:04.549Z,28.20
2018-09-17T15:35:33.181Z,28.10
2018-09-17T15:38:01.818Z,27.90
2018-09-17T15:40:30.555Z,27.80
2018-09-17T15:42:59.277Z,27.70
2018-09-17T15:45:28.059Z,27.60
2018-09-17T15:47:56.811Z,27.60
2018-09-17T15:50:25.501Z,27.50
2018-09-17T15:52:54.108Z,27.30
2018-09-17T15:55:22.806Z,27.30
2018-09-17T15:57:51.566Z,27.30
2018-09-17T16:00:20.153Z,27.10
2018-09-17T16:02:48.867Z,27.10
2018-09-17T16:05:17.989Z,26.90
2018-09-17T16:07:48.287Z,26.90
2018-09-17T16:10:16.916Z,26.80
2018-09-17T16:12:45.531Z,26.70
2018-09-17T16:15:14.285Z,26.60
2018-09-17T16:17:43.459Z,26.50
2018-09-17T16:20:12.171Z,26.30
2018-09-17T16:22:40.845Z,26.10
2018-09-17T16:25:09.587Z,26.00
2018-09-17T16:27:38.366Z,25.90
2018-09-17T16:30:08.865Z,25.80
2018-09-17T16:32:38.254Z,25.70
2018-09-17T16:35:07.107Z,25.60
2018-09-17T16:37:36.591Z,25.40
2018-09-17T16:40:05.741Z,25.30
2018-09-17T16:42:34.363Z,25.10
2018-09-17T16:45:02.982Z,25.10
2018-09-17T16:47:31.640Z,24.90
2018-09-17T16:50:00.273Z,24.80
2018-09-17T16:52:28.846Z,24.70
2018-09-17T16:54:57.494Z,24.50
2018-09-17T16:57:26.200Z,24.30
2018-09-17T16:59:55.010Z,24.10
2018-09-17T17:02:23.506Z,23.90
2018-09-17T17:04:52.282Z,23.70
2018-09-17T17:07:20.874Z,23.40
2018-09-17T17:09:49.527Z,23.30
2018-09-17T17:12:18.210Z,23.10
2018-09-17T17:14:46.946Z,23.00
2018-09-17T17:17:15.589Z,22.80
2018-09-17T17:19:44.300Z,22.60
2018-09-17T17:22:13.032Z,22.50
2018-09-17T17:24:42.260Z,22.40
2018-09-17T17:27:10.982Z,22.30
2018-09-17T17:29:39.770Z,22.10
2018-09-17T17:32:08.645Z,22.00
2018-09-17T17:34:38.172Z,21.90
2018-09-17T17:37:07.058Z,21.80
2018-09-17T17:39:36.018Z,21.60
2018-09-17T17:42:04.736Z,21.50
2018-09-17T17:44:33.356Z,21.40
2018-09-17T17:47:02.154Z,21.30
2018-09-17T17:49:30.771Z,21.20
2018-09-17T17:51:59.812Z,21.10
2018-09-17T17:54:28.561Z,21.00
2018-09-17T17:56:57.241Z,21.00
2018-09-17T17:59:25.991Z,20.90
2018-09-17T18:01:54.673Z,20.90
2018-09-17T18:04:23.550Z,20.90
2018-09-17T18:06:52.929Z,20.90
2018-09-17T18:09:21.645Z,20.80
2018-09-17T18:11:50.246Z,20.90
2018-09-17T18:14:18.887Z,21.00
2018-09-17T18:16:49.383Z,21.00
2018-09-17T18:19:17.995Z,21.00
2018-09-17T18:21:46.884Z,21.00
2018-09-17T18:24:15.709Z,21.10
2018-09-17T18:26:44.344Z,21.10
2018-09-17T18:29:13.163Z,21.10
2018-09-17T18:31:42.591Z,21.10
2018-09-17T18:34:11.319Z,21.20
2018-09-17T18:36:40.429Z,21.20
2018-09-17T18:39:10.482Z,21.10
2018-09-17T18:41:39.495Z,21.10
2018-09-17T18:44:08.251Z,21.10
2018-09-17T18:46:37.081Z,21.10
2018-09-17T18:49:05.984Z,21.00
2018-09-17T18:51:34.744Z,20.90
2018-09-17T18:54:03.561Z,20.80
2018-09-17T18:56:32.338Z,20.80
2018-09-17T18:59:01.270Z,20.70
2018-09-17T19:01:30.033Z,20.70
2018-09-17T19:03:58.818Z,20.60
2018-09-17T19:06:27.414Z,20.40
2018-09-17T19:08:56.107Z,20.50
2018-09-17T19:11:24.771Z,20.40
2018-09-17T19:13:58.638Z,20.30
2018-09-17T19:16:32.628Z,20.20
2018-09-17T19:19:01.392Z,20.20
2018-09-17T19:21:35.471Z,20.20
2018-09-17T19:24:06.473Z,20.20
2018-09-17T19:26:35.489Z,20.10
2018-09-17T19:29:09.618Z,20.10
2018-09-17T19:31:38.246Z,20.10
2018-09-17T19:34:07.102Z,20.10
2018-09-17T19:36:35.895Z,20.00
2018-09-17T19:39:11.563Z,20.10
2018-09-17T19:41:41.086Z,20.00
2018-09-17T19:44:10.686Z,20.00
2018-09-17T19:46:39.518Z,20.00
2018-09-17T19:49:08.528Z,19.90
2018-09-17T19:51:42.447Z,19.80
2018-09-17T19:54:11.486Z,19.90
2018-09-17T19:56:40.186Z,19.80
2018-09-17T19:59:14.088Z,19.80
2018-09-17T20:13:23.288Z,19.70
2018-09-17T20:15:52.769Z,19.70
2018-09-17T20:18:22.384Z,19.60
2018-09-17T20:20:55.946Z,19.70
2018-09-17T20:23:25.314Z,19.60
2018-09-17T20:25:54.649Z,19.50
2018-09-17T20:28:23.909Z,19.50
2018-09-17T20:30:53.014Z,19.40
2018-09-17T20:33:24.804Z,19.40
2018-09-17T20:35:53.811Z,19.40
2018-09-17T20:38:23.213Z,19.30
2018-09-17T20:40:52.553Z,19.30
2018-09-17T20:43:22.540Z,19.20
2018-09-17T20:45:52.093Z,19.20
2018-09-17T20:48:21.698Z,19.10
2018-09-17T20:50:51.872Z,19.20
2018-09-17T20:53:21.386Z,19.20
2018-09-17T20:55:50.877Z,19.10
2018-09-17T20:58:20.932Z,19.10
2018-09-17T21:00:51.348Z,19.10
2018-09-17T21:03:22.123Z,19.10
2018-09-17T21:05:51.555Z,19.10
2018-09-17T21:08:21.201Z,19.10
2018-09-17T21:10:51.090Z,19.10
2018-09-17T21:13:22.033Z,19.10
2018-09-17T21:15:51.434Z,19.10
2018-09-17T21:18:21.200Z,19.10
2018-09-17T21:20:51.883Z,19.10
2018-09-17T21:23:21.390Z,19.10
2018-09-17T21:25:51.341Z,19.10
2018-09-17T21:28:21.082Z,19.00
2018-09-17T21:30:50.537Z,19.00
2018-09-17T21:33:20.192Z,19.00
2018-09-17T21:35:50.339Z,19.00
2018-09-17T21:38:19.996Z,19.00
2018-09-17T21:40:49.899Z,19.00
2018-09-17T21:43:19.097Z,19.00
2018-09-17T21:45:49.650Z,18.90
2018-09-17T21:48:19.210Z,19.00
2018-09-17T21:50:48.192Z,19.00
2018-09-17T21:53:18.589Z,19.00
2018-09-17T21:55:48.266Z,19.10
2018-09-17T21:58:17.666Z,19.10
2018-09-17T22:00:52.250Z,19.10
2018-09-17T22:03:23.739Z,19.00
2018-09-17T22:05:53.232Z,19.00
2018-09-17T22:08:22.477Z,19.00
2018-09-17T22:10:51.794Z,19.00
2018-09-17T22:13:21.802Z,19.00
2018-09-17T22:15:51.456Z,19.00
2018-09-17T22:18:21.194Z,19.10
2018-09-17T22:20:50.501Z,19.00
2018-09-17T22:23:22.324Z,19.00
2018-09-17T22:25:52.822Z,19.00
2018-09-17T22:28:22.478Z,19.10
2018-09-17T22:30:52.020Z,19.10
2018-09-17T22:33:21.880Z,19.10
2018-09-17T22:35:51.643Z,19.20
2018-09-17T22:38:21.590Z,19.10
2018-09-17T22:40:51.041Z,19.20
2018-09-17T22:43:21.452Z,19.20
2018-09-17T22:45:51.320Z,19.30
2018-09-17T22:48:21.147Z,19.30
2018-09-17T22:50:52.296Z,19.30
2018-09-17T22:53:22.493Z,19.30
2018-09-17T22:55:51.868Z,19.30
2018-09-17T22:58:22.544Z,19.30
2018-09-17T23:35:04.828Z,18.90
2018-09-17T23:37:33.495Z,18.90
